Time;durP1;ratioP1;P1;durP2;ratioP2;P2;SDS_P1;SDS_P2;PMS_P1;PMS_P2;Temp;Humidity;BMP_temperature;BMP_pressure;BME280_temperature;BME280_humidity;BME280_pressure;Samples;Min_cycle;Max_cycle;Signal;HPM_P1;HPM_P2
2021/03/13 00:01:07;;;;;;;5.93;1.70;;;4.60;66.00;;;3.66;48.31;94211.84;5093414;28;20218;-83
2021/03/13 00:03:34;;;;;;;3.50;1.83;;;4.60;66.00;;;3.71;48.13;94216.53;5075567;28;20640;-83
2021/03/13 00:06:01;;;;;;;2.10;1.50;;;4.60;66.00;;;3.66;48.23;94220.44;5075440;28;20784;-83
2021/03/13 00:08:28;;;;;;;3.13;2.00;;;4.60;66.00;;;3.63;48.25;94218.19;5059171;28;20210;-83
2021/03/13 00:10:55;;;;;;;3.33;2.00;;;4.60;66.00;;;3.65;48.35;94207.63;5092571;28;20263;-83
2021/03/13 00:13:22;;;;;;;3.95;2.05;;;4.60;66.00;;;3.61;48.05;94207.16;5058847;28;20221;-83
2021/03/13 00:15:48;;;;;;;3.65;1.85;;;4.60;66.00;;;3.61;48.10;94211.53;5091628;28;20222;-83
2021/03/13 00:18:15;;;;;;;2.45;1.50;;;4.50;65.90;;;3.59;48.25;94203.94;5074750;28;20214;-83
2021/03/13 00:20:44;;;;;;;2.17;1.30;;;4.50;65.90;;;3.58;48.44;94196.34;5075164;28;20272;-83
2021/03/13 00:23:11;;;;;;;3.22;1.75;;;4.50;66.10;;;3.55;48.29;94202.63;5058699;28;20465;-81
2021/03/13 00:25:39;;;;;;;4.65;1.98;;;4.50;66.00;;;3.55;48.46;94209.63;5065746;28;20199;-82
2021/03/13 00:28:08;;;;;;;3.30;2.00;;;4.50;66.00;;;3.50;48.75;94212.69;5071941;28;20196;-82
2021/03/13 00:30:41;;;;;;;3.03;1.70;;;4.50;66.20;;;3.43;48.59;94194.41;5054985;28;20192;-83
2021/03/13 00:33:17;;;;;;;4.80;2.17;;;4.50;66.30;;;3.41;48.64;94198.16;5055063;28;20679;-82
2021/03/13 00:35:48;;;;;;;5.03;2.08;;;4.40;66.30;;;3.38;48.43;94199.25;5056428;28;20301;-83
2021/03/13 00:38:17;;;;;;;3.83;1.92;;;4.40;66.00;;;3.35;48.55;94200.41;5058939;28;20296;-83
2021/03/13 00:40:45;;;;;;;3.97;1.65;;;4.40;66.00;;;3.34;48.53;94198.00;5058664;28;20389;-83
2021/03/13 00:43:14;;;;;;;4.30;1.90;;;4.40;66.10;;;3.30;48.52;94191.53;5074186;28;20230;-82
2021/03/13 00:45:43;;;;;;;3.90;1.65;;;4.30;66.10;;;3.26;48.85;94183.28;5074144;28;20289;-82
2021/03/13 00:48:11;;;;;;;2.75;1.55;;;4.30;66.20;;;3.32;48.96;94184.38;5075404;28;20182;-83
2021/03/13 00:50:42;;;;;;;2.15;1.67;;;4.30;66.30;;;3.31;48.99;94175.81;5075372;28;20305;-83
2021/03/13 00:53:10;;;;;;;4.25;1.85;;;4.30;66.40;;;3.32;50.11;94174.84;5075017;28;20668;-83
2021/03/13 00:55:37;;;;;;;5.88;1.95;;;4.30;66.80;;;3.44;49.89;94175.31;5058384;28;20199;-82
2021/03/13 00:58:07;;;;;;;3.72;2.30;;;4.30;66.90;;;3.58;50.31;94173.78;5075542;28;20210;-83
2021/03/13 01:00:47;;;;;;;3.17;1.40;;;4.30;67.10;;;3.69;50.01;94152.66;5076679;28;20271;-83
2021/03/13 01:03:18;;;;;;;3.85;1.52;;;4.40;67.20;;;3.91;49.75;94162.50;5059709;28;20211;-83
2021/03/13 01:05:46;;;;;;;4.65;1.52;;;4.50;67.30;;;3.99;49.96;94159.84;5091473;28;20225;-83
2021/03/13 01:08:13;;;;;;;3.30;1.73;;;4.60;67.20;;;4.18;50.11;94150.03;5074917;28;20289;-82
2021/03/13 01:10:51;;;;;;;4.07;1.60;;;4.70;67.50;;;4.37;49.96;94149.59;5060936;28;20229;-84
2021/03/13 01:13:24;;;;;;;3.92;1.60;;;4.80;67.40;;;4.53;50.31;94146.06;5055305;28;20681;-83
2021/03/13 01:15:52;;;;;;;3.45;1.73;;;5.00;67.80;;;4.67;49.95;94146.28;5022573;28;20750;-83
2021/03/13 01:18:19;;;;;;;3.95;1.50;;;5.10;67.50;;;4.85;49.94;94152.00;5038716;28;20223;-84
2021/03/13 01:20:50;;;;;;;2.50;1.33;;;5.20;67.60;;;5.00;50.33;94146.03;5038800;28;20273;-83
2021/03/13 01:23:20;;;;;;;2.05;1.73;;;5.40;67.70;;;5.16;49.74;94151.06;5055094;28;20234;-83
2021/03/13 01:25:47;;;;;;;4.85;1.70;;;5.50;67.80;;;5.37;49.95;94147.78;5054498;28;20223;-84
2021/03/13 01:28:14;;;;;;;1.70;1.40;;;5.70;67.70;;;5.54;49.74;94145.00;5054732;28;20268;-83
2021/03/13 01:30:59;;;;;;;1.42;1.13;;;5.80;67.60;;;5.73;49.08;94141.06;5057049;28;20224;-83
2021/03/13 01:33:26;;;;;;;4.07;1.85;;;6.00;67.50;;;5.84;49.26;94137.97;5038168;28;20622;-84
2021/03/13 01:35:55;;;;;;;2.28;1.60;;;6.20;67.40;;;5.94;48.71;94140.31;5038502;28;20219;-84
2021/03/13 01:38:22;;;;;;;2.58;1.50;;;6.30;67.30;;;6.03;48.88;94141.03;5054296;28;20269;-84
2021/03/13 01:40:49;;;;;;;3.22;1.60;;;6.40;67.10;;;6.09;48.29;94135.91;5037985;28;20216;-83
2021/03/13 01:43:18;;;;;;;3.53;1.55;;;6.50;66.90;;;6.15;48.78;94133.56;5066086;28;20234;-83
2021/03/13 01:45:45;;;;;;;4.88;1.65;;;6.60;66.80;;;6.21;48.32;94120.63;5074000;28;20241;-83
2021/03/13 01:48:13;;;;;;;3.58;1.50;;;6.70;67.60;;;6.27;48.57;94145.09;5074689;28;20209;-83
2021/03/13 01:50:41;;;;;;;2.58;1.40;;;6.80;66.70;;;6.32;48.07;94131.53;5074716;28;20280;-82
2021/03/13 01:53:09;;;;;;;3.58;1.63;;;6.90;66.50;;;6.34;48.17;94126.97;5074432;28;20195;-82
2021/03/13 01:55:38;;;;;;;1.35;1.25;;;6.90;66.50;;;6.38;48.31;94131.63;5058645;28;20214;-83
2021/03/13 01:58:07;;;;;;;2.75;1.50;;;7.00;66.40;;;6.40;47.84;94113.97;5074432;28;20609;-83
2021/03/13 02:00:46;;;;;;;3.55;1.55;;;7.00;66.40;;;6.50;48.24;94123.31;5075915;28;20214;-84
2021/03/13 02:03:15;;;;;;;2.78;1.40;;;7.10;66.40;;;6.49;47.98;94111.25;5057986;28;20195;-83
2021/03/13 02:05:48;;;;;;;3.15;1.50;;;7.10;66.40;;;6.55;48.06;94110.53;5076955;28;20248;-84
2021/03/13 02:08:24;;;;;;;4.30;1.75;;;7.20;66.30;;;6.59;47.86;94116.97;5078106;28;20628;-83
2021/03/13 02:11:18;;;;;;;2.85;1.35;;;7.20;66.20;;;6.63;48.21;94114.78;5078166;28;20683;-84
2021/03/13 02:14:12;;;;;;;4.20;1.33;;;7.30;66.30;;;6.68;48.12;94123.66;5078996;28;20263;-84
2021/03/13 02:16:52;;;;;;;3.75;1.45;;;7.30;66.20;;;6.72;47.69;94111.88;5078425;28;20715;-82
2021/03/13 02:19:41;;;;;;;2.95;1.40;;;7.30;66.00;;;6.71;47.80;94099.84;5077754;28;20251;-83
2021/03/13 02:22:10;;;;;;;2.17;1.60;;;7.40;66.00;;;6.72;47.87;94101.44;5094280;28;20636;-82
2021/03/13 02:24:58;;;;;;;4.65;1.50;;;7.40;66.00;;;6.79;47.57;94105.94;5061910;28;20222;-82
2021/03/13 02:27:29;;;;;;;4.70;1.60;;;7.40;65.90;;;6.83;47.19;94110.56;5061382;28;20218;-83
2021/03/13 02:30:13;;;;;;;2.63;1.55;;;7.50;65.90;;;6.84;47.73;94108.78;5055264;28;20237;-83
2021/03/13 02:33:30;;;;;;;2.35;1.25;;;7.50;65.80;;;6.91;47.55;94114.03;5058516;28;20218;-83
2021/03/13 02:36:16;;;;;;;2.10;1.25;;;7.50;65.90;;;6.95;47.30;94117.88;5044038;28;20226;-84
2021/03/13 02:39:02;;;;;;;3.58;1.50;;;7.60;65.80;;;6.93;47.02;94112.03;5073572;28;20215;-84
2021/03/13 02:41:41;;;;;;;3.72;1.50;;;7.60;65.60;;;6.98;47.12;94117.50;5057382;28;20591;-84
2021/03/13 02:44:16;;;;;;;4.95;1.50;;;7.60;65.70;;;6.99;46.99;94119.09;5055556;28;20700;-83
2021/03/13 02:46:52;;;;;;;2.03;1.30;;;7.70;65.70;;;6.98;47.47;94115.69;5073599;28;20222;-83
2021/03/13 02:49:29;;;;;;;2.30;1.45;;;7.70;65.60;;;6.93;47.13;94112.84;5070807;28;20702;-84
2021/03/13 02:52:07;;;;;;;2.72;1.40;;;7.70;65.60;;;6.96;46.80;94122.09;5063264;28;20230;-84
2021/03/13 02:54:47;;;;;;;1.33;1.20;;;7.70;65.50;;;6.97;47.21;94119.31;5061450;28;20210;-84
2021/03/13 02:57:18;;;;;;;3.40;1.50;;;7.70;65.50;;;6.95;47.00;94125.69;5072460;28;20700;-83
2021/03/13 02:59:46;;;;;;;3.17;1.40;;;7.70;65.50;;;6.94;47.00;94114.44;5073233;28;20210;-82
2021/03/13 03:02:17;;;;;;;2.33;1.30;;;7.80;65.50;;;6.98;47.05;94115.69;5057430;28;20306;-83
2021/03/13 03:04:47;;;;;;;2.83;1.38;;;7.70;65.40;;;6.98;46.99;94107.88;5062039;28;20204;-83
2021/03/13 03:07:15;;;;;;;2.83;1.42;;;7.80;65.50;;;6.97;46.97;94111.47;5056872;28;20216;-82
2021/03/13 03:09:46;;;;;;;3.53;1.45;;;7.70;65.40;;;6.98;47.04;94114.88;5056631;28;20245;-83
2021/03/13 03:12:14;;;;;;;2.92;1.63;;;7.70;65.40;;;7.01;46.41;94099.66;5072480;28;20215;-83
2021/03/13 03:14:48;;;;;;;3.83;1.35;;;7.70;65.40;;;7.02;46.96;94097.88;5061688;28;20652;-83
2021/03/13 03:17:17;;;;;;;3.72;1.50;;;7.70;65.40;;;7.01;47.15;94086.63;5075328;28;20673;-82
2021/03/13 03:19:47;;;;;;;2.28;1.35;;;7.70;65.30;;;6.96;47.11;94103.84;5076340;28;20601;-83
2021/03/13 03:22:17;;;;;;;2.25;1.33;;;7.70;66.20;;;6.95;47.26;94092.59;5076474;28;20219;-83
2021/03/13 03:24:53;;;;;;;3.83;1.50;;;7.70;65.40;;;6.89;46.87;94095.97;5077563;28;20190;-84
2021/03/13 03:27:21;;;;;;;2.72;1.23;;;7.70;65.40;;;6.89;47.05;94096.75;5074966;28;20222;-83
2021/03/13 03:29:51;;;;;;;5.85;1.80;;;7.70;65.40;;;6.83;47.33;94102.72;5073164;28;20241;-84
2021/03/13 03:32:33;;;;;;;3.00;1.40;;;7.70;65.50;;;6.83;47.25;94114.97;5083315;28;20227;-83
2021/03/13 03:35:03;;;;;;;3.75;1.50;;;7.60;65.40;;;6.81;47.24;94109.97;5059899;28;20208;-83
2021/03/13 03:37:31;;;;;;;2.45;1.35;;;7.60;65.50;;;6.79;47.41;94103.31;5055997;28;20226;-83
2021/03/13 03:39:59;;;;;;;2.15;1.40;;;7.60;65.50;;;6.73;47.01;94097.06;5056018;28;20703;-84
2021/03/13 03:42:26;;;;;;;3.38;1.42;;;7.60;65.60;;;6.73;47.51;94102.25;5060645;28;20314;-83
2021/03/13 03:44:56;;;;;;;5.53;1.65;;;7.50;65.50;;;6.75;47.87;94107.28;5075970;28;20206;-84
2021/03/13 03:47:25;;;;;;;3.58;1.50;;;7.60;65.60;;;6.67;48.18;94098.59;5060046;28;20268;-83
2021/03/13 03:50:00;;;;;;;2.30;1.27;;;7.50;65.60;;;6.74;47.45;94101.28;5076867;28;20298;-84
2021/03/13 03:52:52;;;;;;;4.28;1.30;;;7.50;65.60;;;6.76;47.60;94111.50;5071641;28;20661;-83
2021/03/13 03:55:22;;;;;;;3.45;1.50;;;7.60;65.70;;;6.76;47.67;94124.53;5039443;28;20649;-83
2021/03/13 03:57:51;;;;;;;2.17;1.25;;;7.50;65.70;;;6.73;47.72;94116.09;5055907;28;20322;-84
2021/03/13 04:00:20;;;;;;;2.28;1.52;;;7.50;65.70;;;6.72;47.66;94113.69;5061604;28;20195;-83
2021/03/13 04:02:56;;;;;;;3.50;1.13;;;7.50;65.60;;;6.73;47.30;94110.88;5056028;28;20194;-84
2021/03/13 04:05:25;;;;;;;2.15;1.30;;;7.50;65.60;;;6.67;47.66;94106.41;5055742;28;20191;-84
2021/03/13 04:07:53;;;;;;;1.35;1.20;;;7.50;65.60;;;6.65;47.47;94123.22;5072088;28;20199;-84
2021/03/13 04:10:22;;;;;;;2.55;1.50;;;7.50;65.60;;;6.59;47.69;94111.75;5055447;28;20607;-83
2021/03/13 04:12:50;;;;;;;2.75;1.42;;;7.40;65.60;;;6.54;47.96;94112.34;5062439;28;20217;-82
2021/03/13 04:15:18;;;;;;;4.95;1.40;;;7.40;65.70;;;6.51;48.10;94107.47;5092337;28;20191;-84
2021/03/13 04:17:46;;;;;;;2.90;1.42;;;7.40;65.80;;;6.56;47.87;94117.34;5058164;28;20321;-82
2021/03/13 04:20:14;;;;;;;1.88;1.30;;;7.40;65.90;;;6.54;48.14;94107.13;5058946;28;20199;-83
2021/03/13 04:22:42;;;;;;;3.58;1.30;;;7.30;65.70;;;6.56;47.88;94114.75;5075472;28;20218;-83
2021/03/13 04:25:09;;;;;;;3.65;1.60;;;7.30;65.70;;;6.56;47.84;94110.31;5075124;28;20289;-83
2021/03/13 04:27:44;;;;;;;2.28;1.20;;;7.30;65.80;;;6.56;47.84;94115.53;5080360;28;20222;-82
2021/03/13 04:30:16;;;;;;;3.17;1.30;;;7.30;65.80;;;6.54;47.91;94122.75;5046613;28;20223;-84
2021/03/13 04:32:50;;;;;;;2.55;1.48;;;7.30;65.90;;;6.56;48.03;94119.94;5053671;28;20238;-82
2021/03/13 04:35:20;;;;;;;1.23;1.00;;;7.30;66.00;;;6.58;47.71;94104.94;5052690;28;20203;-83
2021/03/13 04:37:47;;;;;;;1.63;1.23;;;7.30;65.90;;;6.59;48.10;94105.75;5056806;28;20269;-83
2021/03/13 04:40:16;;;;;;;4.45;1.27;;;7.30;65.90;;;6.59;47.84;94113.56;5068241;28;20207;-84
2021/03/13 04:42:46;;;;;;;4.07;1.30;;;7.30;66.00;;;6.57;48.15;94108.53;5054309;28;20689;-84
2021/03/13 04:45:15;;;;;;;3.38;1.48;;;7.30;66.00;;;6.59;47.82;94119.56;5067860;28;20722;-82
2021/03/13 04:47:51;;;;;;;2.17;1.25;;;7.30;66.00;;;6.57;47.83;94116.34;5071427;28;20218;-83
2021/03/13 04:50:20;;;;;;;2.45;1.48;;;7.30;66.00;;;6.60;48.21;94126.38;5065306;28;20199;-82
2021/03/13 04:52:49;;;;;;;1.83;1.23;;;7.30;66.00;;;6.59;47.83;94126.59;5060783;28;20183;-84
2021/03/13 04:55:17;;;;;;;3.10;1.20;;;7.40;66.10;;;6.61;47.91;94125.41;5048691;28;20564;-83
2021/03/13 04:57:44;;;;;;;2.78;1.20;;;7.30;66.00;;;6.61;48.30;94129.81;5064317;28;20280;-84
2021/03/13 05:00:15;;;;;;;3.50;1.42;;;7.30;66.00;;;6.63;48.20;94127.81;5045883;28;20195;-83
2021/03/13 05:02:42;;;;;;;2.58;1.42;;;7.30;66.10;;;6.63;48.32;94126.03;5063169;28;20207;-82
2021/03/13 05:05:10;;;;;;;3.75;1.30;;;7.30;66.00;;;6.63;48.15;94123.44;5069380;28;20203;-84
2021/03/13 05:07:37;;;;;;;1.80;1.20;;;7.30;66.10;;;6.64;48.04;94125.03;5036744;28;20441;-83
2021/03/13 05:10:09;;;;;;;1.98;1.38;;;7.30;67.00;;;6.66;48.15;94136.06;5036148;28;20223;-83
2021/03/13 05:12:36;;;;;;;3.05;1.48;;;7.30;66.20;;;6.66;48.30;94125.66;5054625;28;20709;-83
2021/03/13 05:15:08;;;;;;;1.70;1.30;;;7.40;66.30;;;6.72;48.10;94111.88;5037472;28;20187;-83
2021/03/13 05:17:35;;;;;;;2.63;1.27;;;7.40;66.20;;;6.73;47.88;94110.88;5052350;28;20227;-83
2021/03/13 05:20:07;;;;;;;1.80;1.63;;;7.40;66.20;;;6.79;48.29;94121.56;5052927;28;20203;-84
2021/03/13 05:22:34;;;;;;;2.10;1.50;;;7.40;66.20;;;6.79;48.17;94127.56;5054830;28;20310;-83
2021/03/13 05:25:01;;;;;;;3.80;1.50;;;7.40;66.20;;;6.77;48.28;94118.34;5038124;28;20198;-83
2021/03/13 05:27:28;;;;;;;2.72;1.60;;;7.50;66.30;;;6.86;47.85;94119.78;5071291;28;20215;-84
2021/03/13 05:29:54;;;;;;;3.15;1.30;;;7.50;66.30;;;6.89;47.87;94128.03;5054515;28;20195;-84
2021/03/13 05:32:23;;;;;;;2.67;1.40;;;7.50;66.30;;;6.89;48.04;94112.41;5041651;28;20246;-84
2021/03/13 05:34:50;;;;;;;2.22;1.30;;;7.50;66.20;;;6.95;48.09;94117.88;5053529;28;20199;-83
2021/03/13 05:37:17;;;;;;;2.60;1.98;;;7.60;66.30;;;7.03;48.12;94110.72;5057658;28;20233;-82
2021/03/13 05:39:43;;;;;;;2.42;1.67;;;7.60;66.30;;;7.02;47.71;94109.09;5091749;28;20232;-84
2021/03/13 05:42:11;;;;;;;5.13;2.22;;;7.60;66.30;;;7.11;47.83;94108.97;5058468;28;20265;-84
2021/03/13 05:44:38;;;;;;;6.25;2.33;;;7.70;66.30;;;7.16;47.88;94102.16;5041889;28;20673;-83
2021/03/13 05:47:06;;;;;;;2.50;1.75;;;7.70;66.30;;;7.19;47.75;94095.78;5041605;28;20233;-82
2021/03/13 05:49:35;;;;;;;7.03;3.75;;;7.70;66.30;;;7.25;47.64;94105.47;5058410;28;20237;-83
2021/03/13 05:52:05;;;;;;;8.32;4.32;;;7.80;66.30;;;7.32;47.45;94103.69;5058234;28;20223;-82
2021/03/13 05:54:32;;;;;;;9.55;5.07;;;7.80;66.30;;;7.41;47.58;94093.91;5042026;28;20696;-84
2021/03/13 05:57:01;;;;;;;4.07;2.45;;;7.90;66.30;;;7.49;47.87;94090.31;5041630;28;20279;-83
2021/03/13 05:59:28;;;;;;;9.73;3.97;;;8.00;66.30;;;7.58;47.57;94094.41;5058167;28;20191;-84
2021/03/13 06:01:55;;;;;;;5.15;2.80;;;8.00;66.30;;;7.63;47.48;94094.63;5074439;28;20223;-84
2021/03/13 06:04:24;;;;;;;12.73;5.78;;;8.10;66.30;;;7.72;47.51;94087.44;5042028;28;20218;-84
2021/03/13 06:06:52;;;;;;;10.40;4.07;;;8.10;66.20;;;7.75;47.51;94084.44;5074657;28;20612;-83
2021/03/13 06:09:20;;;;;;;14.43;5.78;;;8.30;66.20;;;7.77;47.66;94090.25;5058083;28;20218;-84
2021/03/13 06:11:47;;;;;;;5.07;2.90;;;8.30;66.20;;;7.72;47.15;94078.81;5074304;28;20225;-83
2021/03/13 06:14:13;;;;;;;8.73;4.32;;;8.30;66.00;;;7.80;47.19;94097.72;5059988;28;20230;-84
2021/03/13 06:16:41;;;;;;;8.57;3.40;;;8.30;66.00;;;7.79;47.30;94105.75;5077535;28;20211;-83
2021/03/13 06:19:08;;;;;;;11.65;5.20;;;8.40;66.00;;;7.78;47.37;94104.13;5078110;28;20205;-83
2021/03/13 06:21:38;;;;;;;3.20;1.70;;;8.40;66.00;;;7.82;47.70;94087.06;5078374;28;20211;-84
2021/03/13 06:24:07;;;;;;;3.95;2.25;;;8.40;66.00;;;7.88;47.20;94096.72;5060942;28;20198;-84
2021/03/13 06:26:54;;;;;;;3.63;1.50;;;8.40;66.90;;;7.94;47.51;94097.75;5078306;28;20573;-84
2021/03/13 06:29:22;;;;;;;3.78;1.85;;;8.50;66.00;;;7.97;47.24;94095.56;5077702;28;20290;-84
2021/03/13 06:32:13;;;;;;;3.55;1.42;;;8.50;66.10;;;8.08;46.87;94112.47;5077971;28;20203;-84
2021/03/13 06:35:28;;;;;;;5.35;1.40;;;8.50;65.90;;;8.16;46.75;94095.81;5079788;28;20194;-84
2021/03/13 06:38:13;;;;;;;4.80;1.63;;;8.60;65.90;;;8.23;47.15;94096.66;5077636;28;20253;-83
2021/03/13 06:40:40;;;;;;;3.53;1.50;;;8.70;66.00;;;8.31;46.98;94106.09;5076659;28;20249;-83
2021/03/13 06:43:30;;;;;;;4.78;1.80;;;8.80;66.00;;;8.35;46.54;94112.56;5093464;28;20561;-82
2021/03/13 06:46:18;;;;;;;2.70;1.48;;;8.80;65.70;;;8.40;46.47;94102.31;5077162;28;20830;-82
2021/03/13 06:48:57;;;;;;;2.05;1.38;;;8.90;65.70;;;8.42;46.33;94107.31;5060434;28;20229;-81
2021/03/13 06:51:37;;;;;;;2.05;1.23;;;8.90;65.70;;;8.45;46.51;94107.75;5060487;28;20783;-83
2021/03/13 06:54:16;;;;;;;2.67;1.30;;;8.90;65.60;;;8.49;46.51;94110.78;5076929;28;20203;-82
2021/03/13 06:56:46;;;;;;;2.42;1.30;;;9.00;65.60;;;8.54;46.34;94102.34;5060130;28;20214;-82
2021/03/13 06:59:31;;;;;;;1.50;1.10;;;9.00;65.50;;;8.57;46.12;94099.34;5093840;28;20194;-83
2021/03/13 07:02:11;;;;;;;2.45;1.42;;;9.10;65.60;;;8.61;46.06;94103.19;5093412;28;20236;-83
2021/03/13 07:04:42;;;;;;;2.53;1.35;;;9.10;65.40;;;8.67;46.18;94109.41;5076520;28;20201;-82
2021/03/13 07:07:12;;;;;;;2.72;1.30;;;9.10;65.40;;;8.71;45.24;94108.81;5052131;28;20423;-82
2021/03/13 07:09:59;;;;;;;1.77;1.20;;;9.20;65.20;;;8.76;45.58;94103.81;5056462;28;20685;-80
2021/03/13 07:12:40;;;;;;;2.08;1.20;;;9.20;65.10;;;8.83;45.70;94109.03;5065231;28;20600;-83
2021/03/13 07:15:21;;;;;;;3.58;1.63;;;9.30;65.20;;;8.92;45.58;94110.44;5076811;28;20190;-81
2021/03/13 07:18:00;;;;;;;2.08;1.40;;;9.30;65.20;;;8.94;45.28;94107.63;5075955;28;20225;-83
2021/03/13 07:20:30;;;;;;;5.10;1.45;;;9.40;65.00;;;9.04;45.29;94109.84;5072565;28;20191;-83
2021/03/13 07:23:02;;;;;;;1.33;1.08;;;9.40;65.00;;;9.08;45.32;94098.78;5073842;28;20202;-83
2021/03/13 07:25:30;;;;;;;3.50;1.50;;;9.50;65.20;;;9.16;45.26;94115.25;5056538;28;20191;-82
2021/03/13 07:28:03;;;;;;;3.22;1.65;;;9.50;65.20;;;9.18;45.32;94102.75;5074920;28;20191;-82
2021/03/13 07:30:33;;;;;;;4.82;1.60;;;9.60;64.90;;;9.23;45.05;94119.47;5059663;28;20218;-81
2021/03/13 07:33:10;;;;;;;3.70;1.90;;;9.60;64.80;;;9.29;44.95;94096.94;5064614;28;20218;-82
2021/03/13 07:35:47;;;;;;;3.75;2.00;;;9.70;65.00;;;9.38;44.99;94128.94;5057083;28;20230;-82
2021/03/13 07:38:15;;;;;;;3.03;1.77;;;9.70;64.80;;;9.44;44.53;94081.78;5079170;28;20207;-83
2021/03/13 07:40:48;;;;;;;1.95;1.35;;;9.80;64.70;;;9.52;44.52;94083.41;5072026;28;20306;-83
2021/03/13 07:43:17;;;;;;;7.18;4.03;;;9.80;64.60;;;9.64;44.61;94088.00;5063085;28;20276;-83
2021/03/13 07:45:48;;;;;;;1.52;1.35;;;9.90;64.70;;;9.73;44.73;94086.75;5055706;28;20252;-82
2021/03/13 07:48:16;;;;;;;1.33;1.20;;;10.00;63.50;;;9.77;43.81;94088.75;5072097;28;20188;-82
2021/03/13 07:50:48;;;;;;;1.75;1.30;;;10.10;63.10;;;9.87;44.04;94085.69;5039183;28;20211;-82
2021/03/13 07:53:15;;;;;;;2.60;1.70;;;10.20;63.10;;;9.94;43.86;94109.25;5038974;28;20206;-82
2021/03/13 07:55:51;;;;;;;3.28;1.95;;;10.20;63.00;;;9.96;43.50;94083.66;5072098;28;20230;-82
2021/03/13 07:58:20;;;;;;;2.47;1.20;;;10.30;62.80;;;10.04;43.54;94095.69;5072061;28;20222;-82
2021/03/13 08:00:49;;;;;;;1.85;1.25;;;10.40;62.90;;;10.07;43.65;94088.22;5055293;28;20207;-83
2021/03/13 08:03:37;;;;;;;4.03;1.30;;;10.40;62.60;;;10.07;43.73;94083.00;5041791;28;20191;-82
2021/03/13 08:06:17;;;;;;;4.20;1.30;;;10.50;62.60;;;10.07;43.56;94088.22;5071891;28;20230;-82
2021/03/13 08:08:47;;;;;;;1.92;1.17;;;10.50;62.60;;;10.05;43.11;94098.09;5055364;28;20175;-82
2021/03/13 08:11:21;;;;;;;2.47;1.10;;;10.50;62.30;;;10.06;43.61;94098.94;5054903;28;20227;-81
2021/03/13 08:13:53;;;;;;;0.80;0.80;;;10.60;62.40;;;10.12;43.66;94089.41;5072755;28;20209;-81
2021/03/13 08:16:34;;;;;;;2.40;1.20;;;10.60;62.60;;;10.13;43.27;94080.53;5074942;28;20707;-82
2021/03/13 08:19:03;;;;;;;1.65;1.20;;;10.60;62.40;;;10.20;42.97;94083.94;5055913;28;20309;-83
2021/03/13 08:21:35;;;;;;;1.75;1.00;;;10.60;62.20;;;10.28;43.58;94111.69;5054934;28;20219;-83
2021/03/13 08:24:03;;;;;;;2.10;1.10;;;10.70;62.50;;;10.30;42.95;94089.53;5076442;28;20201;-81
2021/03/13 08:26:36;;;;;;;1.85;1.15;;;10.70;62.20;;;10.33;42.85;94088.31;5057481;28;20665;-82
2021/03/13 08:29:08;;;;;;;1.65;1.13;;;10.70;61.90;;;10.31;42.57;94091.13;5070905;28;20199;-83
2021/03/13 08:31:37;;;;;;;2.90;1.00;;;10.70;61.80;;;10.33;42.74;94096.16;5080911;28;20215;-79
2021/03/13 08:34:04;;;;;;;1.00;0.90;;;10.80;61.90;;;10.36;43.01;94077.38;5054984;28;20276;-80
2021/03/13 08:36:46;;;;;;;1.00;1.00;;;10.80;62.20;;;10.38;42.33;94072.78;5071511;28;20215;-79
2021/03/13 08:39:18;;;;;;;2.72;1.17;;;10.80;61.60;;;10.37;42.28;94090.31;5072116;28;20681;-81
2021/03/13 08:41:51;;;;;;;1.90;1.02;;;10.80;61.50;;;10.39;42.46;94095.34;5056645;28;20215;-82
2021/03/13 08:44:35;;;;;;;1.33;1.02;;;10.90;61.80;;;10.47;42.71;94102.94;5054351;28;20200;-81
2021/03/13 08:47:09;;;;;;;2.95;1.00;;;10.90;62.10;;;10.57;42.35;94097.28;5074240;28;20236;-80
2021/03/13 08:49:43;;;;;;;1.45;0.98;;;10.90;61.80;;;10.68;42.59;94091.34;5070374;28;20183;-79
2021/03/13 08:52:10;;;;;;;1.73;1.00;;;11.00;61.90;;;10.80;42.42;94072.28;5058263;28;20210;-81
2021/03/13 08:54:39;;;;;;;3.20;0.88;;;11.00;62.00;;;10.91;41.91;94078.66;5075654;28;20333;-81
2021/03/13 08:57:07;;;;;;;1.30;0.90;;;11.10;61.70;;;11.00;41.48;94085.25;5071843;28;20216;-81
2021/03/13 08:59:35;;;;;;;3.70;1.00;;;11.20;61.50;;;11.09;41.33;94059.53;5073923;28;20680;-82
2021/03/13 09:02:14;;;;;;;1.63;1.17;;;11.30;61.60;;;11.25;41.95;94076.56;5069848;28;20744;-81
2021/03/13 09:04:50;;;;;;;1.77;1.27;;;11.40;61.60;;;11.36;41.93;94062.69;5038062;28;20198;-82
2021/03/13 09:07:22;;;;;;;2.15;1.00;;;11.50;61.60;;;11.42;41.70;94068.91;5054976;28;20210;-80
2021/03/13 09:09:51;;;;;;;0.93;0.90;;;11.50;61.40;;;11.50;41.10;94081.75;5054002;28;20202;-82
2021/03/13 09:12:21;;;;;;;1.67;1.20;;;11.60;61.40;;;11.58;41.26;94052.56;5054405;28;20221;-81
2021/03/13 09:14:57;;;;;;;1.02;0.95;;;11.70;61.30;;;11.66;41.18;94057.53;5056965;28;20197;-81
2021/03/13 09:17:28;;;;;;;2.15;0.88;;;11.80;61.10;;;11.71;40.72;94053.47;5057948;28;20267;-81
2021/03/13 09:20:13;;;;;;;1.35;1.23;;;11.90;61.00;;;11.74;40.79;94053.00;5058591;28;20637;-81
2021/03/13 09:22:48;;;;;;;1.63;1.02;;;11.90;61.10;;;11.81;41.08;94064.25;5041518;28;20222;-81
2021/03/13 09:25:22;;;;;;;2.90;1.10;;;12.00;61.00;;;11.89;41.00;94044.75;5057449;28;20197;-80
2021/03/13 09:27:53;;;;;;;1.13;0.98;;;12.00;61.00;;;12.01;40.65;94043.00;5058283;28;20192;-79
2021/03/13 09:30:27;;;;;;;1.10;1.00;;;12.10;60.90;;;12.14;40.38;94036.78;5058248;28;20199;-79
2021/03/13 09:32:54;;;;;;;2.55;1.00;;;12.20;60.70;;;12.20;39.59;94035.88;5048335;28;20208;-80
2021/03/13 09:35:26;;;;;;;1.38;1.20;;;12.30;60.50;;;12.30;40.39;94030.09;5092912;28;20186;-79
2021/03/13 09:37:54;;;;;;;1.23;1.00;;;12.40;60.90;;;12.41;39.00;94046.94;5061153;28;20236;-80
2021/03/13 09:40:23;;;;;;;2.20;1.08;;;12.50;60.20;;;12.46;38.72;94039.97;5057435;28;20676;-81
2021/03/13 09:42:52;;;;;;;1.23;1.10;;;12.50;59.90;;;12.55;39.59;94037.00;5058049;28;20203;-82
2021/03/13 09:45:25;;;;;;;1.45;1.10;;;12.60;60.10;;;12.60;38.01;94024.00;5044220;28;20191;-80
2021/03/13 09:47:59;;;;;;;1.15;1.05;;;12.70;59.20;;;12.61;37.97;94025.59;5041872;28;20206;-81
2021/03/13 09:50:30;;;;;;;1.90;1.30;;;12.70;58.90;;;12.62;37.20;94017.47;5067042;28;20379;-80
2021/03/13 09:52:59;;;;;;;1.48;1.30;;;12.70;58.30;;;12.68;37.85;94049.94;5059862;28;20209;-80
2021/03/13 09:55:28;;;;;;;1.27;1.00;;;12.70;58.60;;;12.74;37.29;94022.75;5042495;28;20285;-80
2021/03/13 09:58:01;;;;;;;0.90;0.90;;;12.80;58.20;;;12.84;38.08;94030.09;5094338;28;20218;-81
2021/03/13 10:00:42;;;;;;;1.17;1.08;;;12.80;59.00;;;12.98;38.31;94018.28;5057547;28;20671;-81
2021/03/13 10:03:18;;;;;;;1.88;0.95;;;13.00;58.90;;;13.12;37.67;94033.84;5057820;28;20194;-81
2021/03/13 10:05:54;;;;;;;0.82;0.82;;;13.10;58.80;;;13.27;38.25;94020.25;5059670;28;20220;-80
2021/03/13 10:08:22;;;;;;;0.90;0.80;;;13.20;59.00;;;13.35;36.26;93998.03;5073514;28;20713;-81
2021/03/13 10:10:53;;;;;;;0.90;0.90;;;13.30;57.60;;;13.42;36.20;94020.59;5057901;28;20214;-80
2021/03/13 10:13:21;;;;;;;1.75;1.00;;;13.40;57.70;;;13.47;35.52;94033.06;5057925;28;20199;-80
2021/03/13 10:15:48;;;;;;;0.80;0.80;;;13.50;57.90;;;13.52;35.90;94011.31;5075445;28;20218;-80
2021/03/13 10:18:18;;;;;;;0.98;0.98;;;13.50;57.50;;;13.55;36.05;94002.91;5054311;28;20218;-81
2021/03/13 10:20:48;;;;;;;1.13;1.00;;;13.60;57.50;;;13.59;36.52;93996.97;5073989;28;20291;-80
2021/03/13 10:23:21;;;;;;;1.00;1.00;;;13.60;58.00;;;13.66;36.53;93999.47;5056955;28;20194;-80
2021/03/13 10:26:06;;;;;;;1.00;0.90;;;13.70;58.10;;;13.72;37.36;93974.81;5056594;28;20219;-80
2021/03/13 10:28:38;;;;;;;0.90;0.90;;;13.80;58.10;;;13.82;37.31;93976.84;5074904;28;20183;-81
2021/03/13 10:31:10;;;;;;;1.83;1.20;;;13.90;58.20;;;13.93;37.28;93983.91;5056660;28;20234;-81
2021/03/13 10:33:44;;;;;;;1.23;1.00;;;13.90;58.20;;;13.99;35.65;93962.91;5083130;28;20196;-81
2021/03/13 10:36:13;;;;;;;1.42;1.00;;;14.00;56.50;;;14.02;35.97;93978.25;5061334;28;20229;-82
2021/03/13 10:38:51;;;;;;;1.00;1.00;;;14.10;56.90;;;14.04;35.03;93982.25;5060085;28;20210;-83
2021/03/13 10:41:23;;;;;;;1.30;1.20;;;14.20;56.30;;;14.05;34.66;93975.16;5060494;28;20217;-83
2021/03/13 10:43:54;;;;;;;1.20;1.10;;;14.20;55.50;;;14.07;35.61;93979.16;5073420;28;20206;-82
2021/03/13 10:46:25;;;;;;;1.08;1.00;;;14.20;56.20;;;14.06;35.67;93967.00;5056833;28;20226;-83
2021/03/13 10:49:01;;;;;;;2.00;1.00;;;14.30;56.10;;;14.11;36.17;93955.75;5060322;28;20194;-83
2021/03/13 10:51:43;;;;;;;1.30;1.00;;;14.30;56.40;;;14.04;35.07;93955.09;5076537;28;20213;-83